createdAt,value
2022-10-25T00:00:44.540Z,89.30
2022-10-25T00:03:13.487Z,89.29
2022-10-25T00:05:42.760Z,89.15
2022-10-25T00:08:11.871Z,89.13
2022-10-25T00:10:39.574Z,88.99
2022-10-25T00:13:07.511Z,89.20
2022-10-25T00:15:35.371Z,89.41
2022-10-25T00:18:03.239Z,89.10
2022-10-25T00:20:30.879Z,89.48
2022-10-25T00:22:58.757Z,88.96
2022-10-25T00:25:27.939Z,89.13
2022-10-25T00:27:55.645Z,88.75
2022-10-25T00:30:23.388Z,89.22
2022-10-25T00:32:52.778Z,89.34
2022-10-25T00:35:20.537Z,89.22
2022-10-25T00:37:48.344Z,89.40
2022-10-25T00:40:16.338Z,89.34
2022-10-25T00:42:45.821Z,89.24
2022-10-25T00:45:22.445Z,89.30
2022-10-25T00:47:55.968Z,89.35
2022-10-25T00:50:31.083Z,89.45
2022-10-25T00:53:04.095Z,89.33
2022-10-25T00:55:32.170Z,89.46
2022-10-25T00:58:05.027Z,89.48
2022-10-25T01:00:33.022Z,89.57
2022-10-25T01:03:00.845Z,89.45
2022-10-25T01:05:28.720Z,89.49
2022-10-25T01:07:56.483Z,89.77
2022-10-25T01:10:24.181Z,89.81
2022-10-25T01:12:52.373Z,89.84
2022-10-25T01:15:25.449Z,89.86
2022-10-25T01:18:05.028Z,90.35
2022-10-25T01:21:19.811Z,90.27
2022-10-25T01:24:19.987Z,90.29
2022-10-25T01:27:14.568Z,90.45
2022-10-25T01:30:09.445Z,90.62
2022-10-25T01:32:45.382Z,90.53
2022-10-25T01:35:24.298Z,90.41
2022-10-25T01:38:05.465Z,90.26
2022-10-25T01:40:39.568Z,89.94
2022-10-25T01:43:13.779Z,89.92
2022-10-25T01:45:47.256Z,89.97
2022-10-25T01:48:22.684Z,90.16
2022-10-25T01:50:50.654Z,90.07
2022-10-25T01:53:18.357Z,90.23
2022-10-25T01:55:52.455Z,90.32
2022-10-25T01:58:35.488Z,90.30
2022-10-25T02:01:13.725Z,90.27
2022-10-25T02:03:50.697Z,90.20
2022-10-25T02:06:26.975Z,90.78
2022-10-25T02:09:01.006Z,90.72
2022-10-25T02:11:31.193Z,90.54
2022-10-25T02:14:13.518Z,90.64
2022-10-25T02:16:45.886Z,90.35
2022-10-25T02:19:16.203Z,90.52
2022-10-25T02:21:47.646Z,90.70
2022-10-25T02:24:19.520Z,90.46
2022-10-25T02:29:24.463Z,90.75
2022-10-25T02:31:52.394Z,90.16
2022-10-25T02:34:22.156Z,90.10
2022-10-25T02:36:50.416Z,90.02
2022-10-25T02:39:19.175Z,90.07
2022-10-25T02:45:27.522Z,90.41
2022-10-25T02:47:55.222Z,90.02
2022-10-25T02:50:24.311Z,90.25
2022-10-25T02:52:52.200Z,89.73
2022-10-25T02:55:19.926Z,89.64
2022-10-25T02:57:47.620Z,89.61
2022-10-25T03:00:16.527Z,90.13
2022-10-25T03:02:44.899Z,89.94
2022-10-25T03:05:12.730Z,89.84
2022-10-25T03:07:41.802Z,89.94
2022-10-25T03:10:09.861Z,90.06
2022-10-25T03:12:37.631Z,89.50
2022-10-25T03:15:06.189Z,89.74
2022-10-25T03:17:33.912Z,89.75
2022-10-25T03:20:01.633Z,89.95
2022-10-25T03:22:29.323Z,89.83
2022-10-25T03:24:58.453Z,89.71
2022-10-25T03:27:26.172Z,89.74
2022-10-25T03:29:54.841Z,89.76
2022-10-25T03:32:22.505Z,89.66
2022-10-25T03:34:50.151Z,89.70
2022-10-25T03:37:17.805Z,89.61
2022-10-25T03:39:45.504Z,89.59
2022-10-25T03:42:14.525Z,89.32
2022-10-25T03:44:42.268Z,89.62
2022-10-25T03:47:09.939Z,89.53
2022-10-25T03:49:37.569Z,89.44
2022-10-25T03:52:07.238Z,89.50
2022-10-25T03:54:35.036Z,89.51
2022-10-25T03:57:03.241Z,89.60
2022-10-25T03:59:32.327Z,89.94
2022-10-25T04:02:00.088Z,89.86
2022-10-25T04:04:27.822Z,89.78
2022-10-25T04:06:55.476Z,89.22
2022-10-25T04:09:23.151Z,89.09
2022-10-25T04:11:50.813Z,89.17
2022-10-25T04:14:18.497Z,89.08
2022-10-25T04:16:47.515Z,89.09
2022-10-25T04:19:15.483Z,88.92
2022-10-25T04:21:43.242Z,89.00
2022-10-25T04:24:10.887Z,88.84
2022-10-25T04:26:38.797Z,89.01
2022-10-25T04:29:06.980Z,88.95
2022-10-25T04:31:34.905Z,88.99
2022-10-25T04:34:04.152Z,88.75
2022-10-25T04:36:32.522Z,88.68
2022-10-25T04:39:00.242Z,88.69
2022-10-25T04:41:27.955Z,88.68
2022-10-25T04:43:55.631Z,88.56
2022-10-25T04:46:23.787Z,88.56
2022-10-25T04:48:51.474Z,88.42
2022-10-25T04:51:20.537Z,88.61
2022-10-25T04:53:48.246Z,88.59
2022-10-25T04:56:16.062Z,88.45
2022-10-25T04:58:43.727Z,88.43
2022-10-25T05:01:14.047Z,88.29
2022-10-25T05:03:42.448Z,88.42
2022-10-25T05:06:13.918Z,88.82
2022-10-25T05:08:46.579Z,88.77
2022-10-25T05:11:16.210Z,88.67
2022-10-25T05:13:44.952Z,89.23
2022-10-25T05:16:17.207Z,89.47
2022-10-25T05:18:46.673Z,89.49
2022-10-25T05:21:16.323Z,89.41
2022-10-25T05:23:46.264Z,89.46
2022-10-25T05:26:15.945Z,89.61
2022-10-25T05:28:45.722Z,89.69
2022-10-25T05:31:15.875Z,89.35
2022-10-25T05:33:45.226Z,89.57
2022-10-25T05:36:13.978Z,89.49
2022-10-25T05:38:42.491Z,89.64
2022-10-25T05:41:13.407Z,89.61
2022-10-25T05:43:41.491Z,89.91
2022-10-25T05:46:12.205Z,89.49
2022-10-25T05:48:43.345Z,89.51
2022-10-25T05:51:33.005Z,89.80
2022-10-25T05:54:03.850Z,89.65
2022-10-25T05:56:35.403Z,89.59
2022-10-25T05:59:04.302Z,89.43
2022-10-25T06:01:32.062Z,89.72
2022-10-25T06:03:59.893Z,89.49
2022-10-25T06:06:27.982Z,89.84
2022-10-25T06:08:57.195Z,89.67
2022-10-25T06:11:25.299Z,89.92
2022-10-25T06:13:54.836Z,90.21
2022-10-25T06:16:22.988Z,90.24
2022-10-25T06:18:50.822Z,90.70
2022-10-25T06:21:20.137Z,90.60
2022-10-25T06:23:48.717Z,91.03
2022-10-25T06:26:18.654Z,91.10
2022-10-25T06:28:46.403Z,91.28
2022-10-25T06:31:17.079Z,91.36
2022-10-25T06:33:45.167Z,91.15
2022-10-25T06:36:15.291Z,91.34
2022-10-25T06:38:43.011Z,91.07
2022-10-25T06:41:13.556Z,90.58
2022-10-25T06:43:41.288Z,90.68
2022-10-25T06:46:10.378Z,90.63
2022-10-25T06:48:39.890Z,90.45
2022-10-25T06:51:09.745Z,90.12
2022-10-25T06:53:37.920Z,90.19
2022-10-25T06:56:11.899Z,90.16
2022-10-25T06:58:42.128Z,90.52
2022-10-25T07:01:12.182Z,89.76
2022-10-25T07:03:42.619Z,90.16
2022-10-25T07:06:12.207Z,90.05
2022-10-25T07:08:41.362Z,89.81
2022-10-25T07:11:13.651Z,89.78
2022-10-25T07:13:41.399Z,89.90
2022-10-25T07:16:13.160Z,90.14
2022-10-25T07:18:42.607Z,90.10
2022-10-25T07:21:14.254Z,90.25
2022-10-25T07:23:43.046Z,90.27
2022-10-25T07:26:11.277Z,89.80
2022-10-25T07:28:39.257Z,89.89
2022-10-25T07:31:07.565Z,89.77
2022-10-25T07:33:35.227Z,89.49
2022-10-25T07:36:11.258Z,89.88
2022-10-25T07:38:39.625Z,89.74
2022-10-25T07:41:08.314Z,89.70
2022-10-25T07:43:36.055Z,89.23
2022-10-25T07:46:03.774Z,88.90
2022-10-25T07:48:31.433Z,89.00
2022-10-25T07:50:59.124Z,88.50
2022-10-25T07:53:28.136Z,88.23
2022-10-25T07:55:56.629Z,88.35
2022-10-25T07:58:24.378Z,88.23
2022-10-25T08:00:52.030Z,88.44
2022-10-25T08:03:20.142Z,88.63
2022-10-25T08:05:49.090Z,88.51
2022-10-25T08:08:16.743Z,88.58
2022-10-25T08:10:45.932Z,88.76
2022-10-25T08:13:13.618Z,88.50
2022-10-25T08:15:41.743Z,88.43
2022-10-25T08:18:09.906Z,88.02
2022-10-25T08:21:00.684Z,88.03
2022-10-25T08:23:26.179Z,87.31
2022-10-25T08:25:55.168Z,87.04
2022-10-25T08:28:22.800Z,86.61
2022-10-25T08:30:50.478Z,86.38
2022-10-25T08:33:18.270Z,86.05
2022-10-25T08:35:45.928Z,86.04
2022-10-25T08:38:13.551Z,86.10
2022-10-25T08:40:50.770Z,85.34
2022-10-25T08:43:32.527Z,85.48
2022-10-25T08:46:05.763Z,85.28
2022-10-25T08:48:38.615Z,84.88
2022-10-25T08:51:12.528Z,84.25
2022-10-25T08:53:47.830Z,84.55
2022-10-25T08:56:19.531Z,83.99
2022-10-25T08:58:52.334Z,84.07
2022-10-25T09:01:28.219Z,83.78
2022-10-25T09:03:56.164Z,83.76
2022-10-25T09:06:33.364Z,83.35
2022-10-25T09:09:13.078Z,82.88
2022-10-25T09:11:49.930Z,82.96
2022-10-25T09:14:29.159Z,82.61
2022-10-25T09:17:04.780Z,82.71
2022-10-25T09:19:35.323Z,82.16
2022-10-25T09:22:05.075Z,82.47
2022-10-25T09:24:37.579Z,82.14
2022-10-25T09:27:08.148Z,81.85
2022-10-25T09:29:40.222Z,81.80
2022-10-25T09:32:17.043Z,81.95
2022-10-25T09:34:45.419Z,82.07
2022-10-25T09:37:17.704Z,82.18
2022-10-25T09:39:47.924Z,81.80
2022-10-25T09:42:21.434Z,81.54
2022-10-25T09:44:55.228Z,81.40
2022-10-25T09:47:32.589Z,81.21
2022-10-25T09:50:03.570Z,80.90
2022-10-25T09:52:39.575Z,81.07
2022-10-25T09:55:29.755Z,81.18
2022-10-25T09:57:57.675Z,80.14
2022-10-25T10:00:26.744Z,80.36
2022-10-25T10:02:55.277Z,80.33
2022-10-25T10:05:23.554Z,79.71
2022-10-25T10:07:52.050Z,79.94
2022-10-25T10:10:22.654Z,78.83
2022-10-25T10:12:56.187Z,78.90
2022-10-25T10:15:27.978Z,78.73
2022-10-25T10:18:24.092Z,78.47
2022-10-25T10:21:08.663Z,78.62
2022-10-25T10:23:45.479Z,78.65
2022-10-25T10:26:18.982Z,78.18
2022-10-25T10:28:47.772Z,78.30
2022-10-25T10:31:19.021Z,77.65
2022-10-25T10:33:49.987Z,77.53
2022-10-25T10:36:26.675Z,77.19
2022-10-25T10:38:55.330Z,77.14
2022-10-25T10:41:26.962Z,77.11
2022-10-25T10:44:11.812Z,76.65
2022-10-25T10:46:47.446Z,76.23
2022-10-25T10:49:16.022Z,75.39
2022-10-25T10:51:45.855Z,75.72
2022-10-25T10:54:25.027Z,75.82
2022-10-25T10:56:58.672Z,75.90
2022-10-25T10:59:52.763Z,75.98
2022-10-25T11:02:28.909Z,76.49
2022-10-25T11:05:01.291Z,76.11
2022-10-25T11:07:35.099Z,75.72
2022-10-25T11:10:29.366Z,75.52
2022-10-25T11:13:14.517Z,74.66
2022-10-25T11:16:04.090Z,73.72
2022-10-25T11:18:43.045Z,73.86
2022-10-25T11:21:21.811Z,74.08
2022-10-25T11:24:02.086Z,74.05
2022-10-25T11:26:39.733Z,74.19
2022-10-25T11:29:16.984Z,73.18
2022-10-25T11:31:59.240Z,72.55
2022-10-25T11:34:40.239Z,72.45
2022-10-25T11:37:18.116Z,71.90
2022-10-25T11:39:52.073Z,71.57
2022-10-25T11:42:44.587Z,72.35
2022-10-25T11:45:36.428Z,72.10
2022-10-25T11:48:25.126Z,72.29
2022-10-25T11:51:03.763Z,72.90
2022-10-25T11:53:44.700Z,72.52
2022-10-25T11:56:23.468Z,72.39
2022-10-25T11:59:00.696Z,72.56
2022-10-25T12:01:42.248Z,71.99
2022-10-25T12:04:29.808Z,72.33
2022-10-25T12:07:06.662Z,72.51
2022-10-25T12:09:43.775Z,72.46
2022-10-25T12:12:14.001Z,71.63
2022-10-25T12:14:45.572Z,72.08
2022-10-25T12:17:20.559Z,71.17
2022-10-25T12:19:51.188Z,69.82
2022-10-25T12:22:25.864Z,68.93
2022-10-25T12:24:59.166Z,69.03
2022-10-25T12:27:28.244Z,68.87
2022-10-25T12:30:01.865Z,68.43
2022-10-25T12:32:35.817Z,68.25
2022-10-25T12:35:08.028Z,68.33
2022-10-25T12:37:40.926Z,68.09
2022-10-25T12:40:16.787Z,67.90
2022-10-25T12:42:47.736Z,68.11
2022-10-25T12:45:33.283Z,68.26
2022-10-25T12:48:11.266Z,68.59
2022-10-25T12:50:51.022Z,68.53
2022-10-25T12:53:49.048Z,68.91
2022-10-25T12:56:27.370Z,68.59
2022-10-25T12:59:07.532Z,68.46
2022-10-25T13:01:48.943Z,68.57
2022-10-25T13:04:41.559Z,68.35
2022-10-25T13:07:11.090Z,68.26
2022-10-25T13:09:40.776Z,68.11
2022-10-25T13:12:19.396Z,68.25
2022-10-25T13:14:50.695Z,68.32
2022-10-25T13:17:48.257Z,68.13
2022-10-25T13:20:51.258Z,68.27
2022-10-25T13:23:37.279Z,68.13
2022-10-25T13:26:09.306Z,67.73
2022-10-25T13:28:45.960Z,67.37
2022-10-25T13:31:57.608Z,68.23
2022-10-25T13:34:36.498Z,67.27
2022-10-25T13:37:10.972Z,67.11
2022-10-25T13:39:43.758Z,67.44
2022-10-25T13:42:26.783Z,67.84
2022-10-25T13:44:57.538Z,68.20
2022-10-25T13:47:36.737Z,68.73
2022-10-25T13:50:17.597Z,68.84
2022-10-25T13:52:53.662Z,69.24
2022-10-25T13:55:23.486Z,69.04
2022-10-25T13:57:57.253Z,68.77
2022-10-25T14:00:52.986Z,69.09
2022-10-25T14:03:35.855Z,69.44
2022-10-25T14:06:09.742Z,69.49
2022-10-25T14:08:54.494Z,69.58
2022-10-25T14:11:28.086Z,69.36
2022-10-25T14:14:02.971Z,69.27
2022-10-25T14:16:33.437Z,69.54
2022-10-25T14:19:06.595Z,69.63
2022-10-25T14:21:34.731Z,70.18
2022-10-25T14:24:08.458Z,69.76
2022-10-25T14:26:36.227Z,69.92
2022-10-25T14:29:16.452Z,69.99
2022-10-25T14:31:44.292Z,70.59
2022-10-25T14:34:20.579Z,70.25
2022-10-25T14:36:52.842Z,70.24
2022-10-25T14:39:23.946Z,70.54
2022-10-25T14:41:53.243Z,70.94
2022-10-25T14:44:25.376Z,71.15
2022-10-25T14:46:54.493Z,70.67
2022-10-25T14:49:23.361Z,70.59
2022-10-25T14:51:53.696Z,70.46
2022-10-25T14:54:28.056Z,70.71
2022-10-25T14:56:59.478Z,70.45
2022-10-25T14:59:32.400Z,70.67
2022-10-25T15:02:03.347Z,70.31
2022-10-25T15:04:33.967Z,70.25
2022-10-25T15:07:03.202Z,69.32
2022-10-25T15:09:47.154Z,69.58
2022-10-25T15:12:20.322Z,69.71
2022-10-25T15:14:49.559Z,69.73
2022-10-25T15:17:24.806Z,69.04
2022-10-25T15:20:04.196Z,68.74
2022-10-25T15:22:34.068Z,68.75
2022-10-25T15:25:17.930Z,68.37
2022-10-25T15:27:46.194Z,67.12
2022-10-25T15:30:37.508Z,67.07
2022-10-25T15:33:10.100Z,67.37
2022-10-25T15:35:47.219Z,67.44
2022-10-25T15:38:17.358Z,67.89
2022-10-25T15:40:45.105Z,67.71
2022-10-25T15:43:12.956Z,67.46
2022-10-25T15:45:42.225Z,68.17
2022-10-25T15:48:15.477Z,68.20
2022-10-25T15:50:47.865Z,68.10
2022-10-25T15:53:15.367Z,68.36
2022-10-25T15:55:43.837Z,68.17
2022-10-25T15:58:11.536Z,67.99
2022-10-25T16:00:39.432Z,67.93
2022-10-25T16:03:09.467Z,68.42
2022-10-25T16:05:38.954Z,68.73
2022-10-25T16:08:08.566Z,68.20
2022-10-25T16:10:37.927Z,68.07
2022-10-25T16:13:08.764Z,67.82
2022-10-25T16:15:36.530Z,67.87
2022-10-25T16:18:04.930Z,67.63
2022-10-25T16:20:34.080Z,67.17
2022-10-25T16:23:01.745Z,67.54
2022-10-25T16:25:32.944Z,68.07
2022-10-25T16:28:01.626Z,67.82
2022-10-25T16:30:33.906Z,67.96
2022-10-25T16:33:01.690Z,68.19
2022-10-25T16:35:29.433Z,68.06
2022-10-25T16:37:59.106Z,68.22
2022-10-25T16:40:26.831Z,68.41
2022-10-25T16:42:54.587Z,68.42
2022-10-25T16:45:27.218Z,68.84
2022-10-25T16:47:56.572Z,68.75
2022-10-25T16:50:24.753Z,68.81
2022-10-25T16:52:53.322Z,68.96
2022-10-25T16:55:22.582Z,68.14
2022-10-25T16:57:50.244Z,67.88
2022-10-25T17:00:18.303Z,68.21
2022-10-25T17:02:46.273Z,68.12
2022-10-25T17:05:19.299Z,68.21
2022-10-25T17:07:46.984Z,68.51
2022-10-25T17:10:14.969Z,68.53
2022-10-25T17:12:46.150Z,68.83
2022-10-25T17:15:14.901Z,69.06
2022-10-25T17:17:42.788Z,68.97
2022-10-25T17:20:12.279Z,68.69
2022-10-25T17:22:40.492Z,69.08
2022-10-25T17:25:09.777Z,69.38
2022-10-25T17:27:39.793Z,69.71
2022-10-25T17:30:11.276Z,69.59
2022-10-25T17:32:39.101Z,70.10
2022-10-25T17:35:07.329Z,70.13
2022-10-25T17:37:35.116Z,69.99
2022-10-25T17:40:02.821Z,70.31
2022-10-25T17:42:30.558Z,70.41
2022-10-25T17:44:58.262Z,70.33
2022-10-25T17:47:27.270Z,70.75
2022-10-25T17:50:00.676Z,70.82
2022-10-25T17:52:28.744Z,71.41
2022-10-25T17:54:56.466Z,71.94
2022-10-25T17:57:24.122Z,71.77
2022-10-25T17:59:51.802Z,72.30
2022-10-25T18:02:19.610Z,72.42
2022-10-25T18:05:02.271Z,72.90
2022-10-25T18:07:37.289Z,72.88
2022-10-25T18:10:05.795Z,73.00
2022-10-25T18:12:33.448Z,73.69
2022-10-25T18:15:01.277Z,74.08
2022-10-25T18:17:34.483Z,74.08
2022-10-25T18:20:03.518Z,74.40
2022-10-25T18:22:31.790Z,74.56
2022-10-25T18:24:59.514Z,74.78
2022-10-25T18:27:27.218Z,74.81
2022-10-25T18:29:55.253Z,75.25
2022-10-25T18:32:32.137Z,75.55
2022-10-25T18:35:04.737Z,75.64
2022-10-25T18:37:32.703Z,76.23
2022-10-25T18:40:00.451Z,76.34
2022-10-25T18:42:28.146Z,76.47
2022-10-25T18:44:55.909Z,76.64
2022-10-25T18:47:23.661Z,76.70
2022-10-25T18:49:51.366Z,77.27
2022-10-25T18:52:22.252Z,77.21
2022-10-25T18:54:50.162Z,77.20
2022-10-25T18:57:17.859Z,77.49
2022-10-25T18:59:45.537Z,77.91
2022-10-25T19:02:13.414Z,77.84
2022-10-25T19:04:41.205Z,77.72
2022-10-25T19:07:08.865Z,78.12
2022-10-25T19:09:37.940Z,78.25
2022-10-25T19:12:06.437Z,78.43
2022-10-25T19:14:34.112Z,78.93
2022-10-25T19:17:01.772Z,79.26
2022-10-25T19:19:29.553Z,79.37
2022-10-25T19:21:58.119Z,79.49
2022-10-25T19:24:25.869Z,79.47
2022-10-25T19:26:54.959Z,79.72
2022-10-25T19:29:22.718Z,79.70
2022-10-25T19:31:51.898Z,79.97
2022-10-25T19:34:19.737Z,79.96
2022-10-25T19:36:48.227Z,79.87
2022-10-25T19:39:15.946Z,80.22
2022-10-25T19:41:43.694Z,80.47
2022-10-25T19:44:12.767Z,80.42
2022-10-25T19:46:40.436Z,80.79
2022-10-25T19:49:08.156Z,80.71
2022-10-25T19:51:35.758Z,80.85
2022-10-25T19:54:03.448Z,80.78
2022-10-25T19:56:31.102Z,80.78
2022-10-25T19:58:58.765Z,80.54
2022-10-25T20:01:28.299Z,80.74
2022-10-25T20:03:57.695Z,81.04
2022-10-25T20:06:28.108Z,81.31
2022-10-25T20:08:57.265Z,81.19
2022-10-25T20:11:26.866Z,81.18
2022-10-25T20:13:55.292Z,81.07
2022-10-25T20:16:23.269Z,80.75
2022-10-25T20:18:55.384Z,81.23
2022-10-25T20:21:25.665Z,81.17
2022-10-25T20:23:56.614Z,81.34
2022-10-25T20:26:26.322Z,81.49
2022-10-25T20:28:54.852Z,81.47
2022-10-25T20:31:24.035Z,81.62
2022-10-25T20:33:54.104Z,81.75
2022-10-25T20:36:21.862Z,81.99
2022-10-25T20:38:49.687Z,82.18
2022-10-25T20:41:19.179Z,82.36
2022-10-25T20:43:47.550Z,82.08
2022-10-25T20:46:15.928Z,81.91
2022-10-25T20:48:45.246Z,81.83
2022-10-25T20:51:15.670Z,82.29
2022-10-25T20:53:44.121Z,82.58
2022-10-25T20:56:12.266Z,82.52
2022-10-25T20:58:40.104Z,82.46
2022-10-25T21:01:11.019Z,82.62
2022-10-25T21:03:39.391Z,82.66
2022-10-25T21:06:10.477Z,82.84
2022-10-25T21:08:39.546Z,82.77
2022-10-25T21:11:09.378Z,82.75
2022-10-25T21:13:37.905Z,82.77
2022-10-25T21:16:07.186Z,82.83
2022-10-25T21:18:36.036Z,82.68
2022-10-25T21:21:06.000Z,82.82
2022-10-25T21:23:33.719Z,82.86
2022-10-25T21:26:04.701Z,83.02
2022-10-25T21:28:34.003Z,83.11
2022-10-25T21:31:02.749Z,82.93
2022-10-25T21:33:30.954Z,83.19
2022-10-25T21:36:03.254Z,83.66
2022-10-25T21:38:31.157Z,83.30
2022-10-25T21:41:08.353Z,83.47
2022-10-25T21:43:36.177Z,83.50
2022-10-25T21:46:07.478Z,83.13
2022-10-25T21:48:35.938Z,83.59
2022-10-25T21:51:04.003Z,83.75
2022-10-25T21:53:32.241Z,83.58
2022-10-25T21:56:10.337Z,83.47
2022-10-25T21:58:38.197Z,83.23
2022-10-25T22:01:08.864Z,83.69
2022-10-25T22:03:36.604Z,83.62
2022-10-25T22:06:07.034Z,83.55
2022-10-25T22:08:34.890Z,84.14
2022-10-25T22:11:05.484Z,83.57
2022-10-25T22:13:34.767Z,83.82
2022-10-25T22:16:04.698Z,83.85
2022-10-25T22:18:32.731Z,83.75
2022-10-25T22:21:02.494Z,83.65
2022-10-25T22:23:31.766Z,83.75
2022-10-25T22:26:01.533Z,84.03
2022-10-25T22:28:29.286Z,84.24
2022-10-25T22:31:02.964Z,84.44
2022-10-25T22:33:30.941Z,84.72
2022-10-25T22:38:35.474Z,84.40
2022-10-25T22:41:05.344Z,84.73
2022-10-25T22:43:35.505Z,84.73
2022-10-25T22:46:06.551Z,84.53
2022-10-25T22:48:36.130Z,84.50
2022-10-25T22:51:04.336Z,84.48
2022-10-25T22:53:32.438Z,84.93
2022-10-25T22:56:02.554Z,85.29
2022-10-25T22:58:32.387Z,84.98
2022-10-25T23:01:05.825Z,85.20
2022-10-25T23:03:35.461Z,84.91
2022-10-25T23:06:04.276Z,84.81
2022-10-25T23:08:32.748Z,85.08
2022-10-25T23:11:01.933Z,85.24
2022-10-25T23:13:30.324Z,85.15
2022-10-25T23:15:58.442Z,85.50
2022-10-25T23:18:29.239Z,85.23
2022-10-25T23:21:03.596Z,85.27
2022-10-25T23:23:35.671Z,85.23
2022-10-25T23:26:03.587Z,85.59
2022-10-25T23:28:31.974Z,85.55
2022-10-25T23:31:05.077Z,85.86
2022-10-25T23:33:33.206Z,85.96
2022-10-25T23:36:08.641Z,85.81
2022-10-25T23:38:36.761Z,85.94
2022-10-25T23:41:04.814Z,86.13
2022-10-25T23:43:32.790Z,86.10
2022-10-25T23:46:00.527Z,86.09
2022-10-25T23:48:28.519Z,86.26
2022-10-25T23:50:57.605Z,86.10
2022-10-25T23:53:27.225Z,86.46
2022-10-25T23:55:58.946Z,86.36
2022-10-25T23:58:26.590Z,86.47
